Time;durP1;ratioP1;P1;durP2;ratioP2;P2;SDS_P1;SDS_P2;PMS_P1;PMS_P2;Temp;Humidity;BMP_temperature;BMP_pressure;BME280_temperature;BME280_humidity;BME280_pressure;Samples;Min_cycle;Max_cycle;Signal;HPM_P1;HPM_P2
2021/01/27 00:01:26;;;;;;;5.20;3.73;;;0.90;32.90;;;;;;5071965;28;20455;-73
2021/01/27 00:03:52;;;;;;;4.72;4.30;;;0.90;32.50;;;;;;5071624;28;20262;-72
2021/01/27 00:06:17;;;;;;;3.30;3.00;;;1.00;32.20;;;;;;5072160;28;20235;-73
2021/01/27 00:08:43;;;;;;;4.20;3.57;;;0.90;32.20;;;;;;5070659;28;20697;-73
2021/01/27 00:11:08;;;;;;;3.50;2.83;;;0.90;32.20;;;;;;5067588;28;20169;-73
2021/01/27 00:13:34;;;;;;;3.50;3.20;;;0.90;32.20;;;;;;5071817;28;20256;-72
2021/01/27 00:15:59;;;;;;;4.87;3.80;;;1.00;32.30;;;;;;5071887;28;20262;-73
2021/01/27 00:18:25;;;;;;;10.80;3.90;;;1.10;32.00;;;;;;5071800;28;20198;-73
2021/01/27 00:20:50;;;;;;;5.53;3.73;;;1.10;31.50;;;;;;5071226;28;20169;-72
2021/01/27 00:23:16;;;;;;;16.20;4.53;;;1.10;31.60;;;;;;5071620;28;20292;-73
2021/01/27 00:25:41;;;;;;;4.27;2.40;;;1.10;31.70;;;;;;5053099;28;20235;-73
2021/01/27 00:28:08;;;;;;;5.20;3.80;;;1.10;31.90;;;;;;5071562;28;20188;-72
2021/01/27 00:30:36;;;;;;;4.47;2.85;;;1.10;31.30;;;;;;5070797;28;20177;-73
2021/01/27 00:33:04;;;;;;;4.47;3.33;;;1.10;31.50;;;;;;5071492;28;20246;-72
2021/01/27 00:35:32;;;;;;;4.40;3.17;;;1.00;31.40;;;;;;5070862;28;20606;-72
2021/01/27 00:38:00;;;;;;;3.85;2.72;;;1.00;31.60;;;;;;5071010;28;20229;-73
2021/01/27 00:40:25;;;;;;;3.42;3.00;;;0.90;31.40;;;;;;5069653;28;20173;-73
2021/01/27 00:42:52;;;;;;;3.57;3.00;;;0.90;31.50;;;;;;5049806;28;20260;-73
2021/01/27 00:45:18;;;;;;;3.53;2.85;;;0.90;31.40;;;;;;5070931;28;20185;-73
2021/01/27 00:47:44;;;;;;;6.78;3.33;;;0.80;31.60;;;;;;5070985;28;20181;-72
2021/01/27 00:50:11;;;;;;;3.00;2.70;;;0.80;31.50;;;;;;5070592;28;20174;-72
2021/01/27 00:52:37;;;;;;;3.25;2.88;;;0.80;31.50;;;;;;5071034;28;20588;-73
2021/01/27 00:55:14;;;;;;;4.33;2.33;;;0.70;32.20;;;;;;5071170;28;20183;-72
2021/01/27 00:57:40;;;;;;;4.55;3.60;;;0.60;31.50;;;;;;5070809;28;20751;-72
2021/01/27 01:00:15;;;;;;;3.93;3.23;;;0.50;31.60;;;;;;5070548;28;20210;-73
2021/01/27 01:02:41;;;;;;;3.47;3.17;;;0.50;31.90;;;;;;5071122;28;20503;-73
2021/01/27 01:05:10;;;;;;;3.43;3.00;;;0.40;32.00;;;;;;5071007;28;20662;-71
2021/01/27 01:07:35;;;;;;;3.47;2.38;;;0.40;32.10;;;;;;5069916;28;20211;-73
2021/01/27 01:10:03;;;;;;;3.97;3.50;;;0.30;32.20;;;;;;5070235;28;20660;-71
2021/01/27 01:12:28;;;;;;;4.53;2.30;;;0.20;32.30;;;;;;5065346;28;20547;-73
2021/01/27 01:14:54;;;;;;;2.90;2.30;;;0.20;32.80;;;;;;5070805;28;20201;-73
2021/01/27 01:17:19;;;;;;;3.20;2.50;;;0.10;32.90;;;;;;5070553;28;20260;-72
2021/01/27 01:19:45;;;;;;;4.53;3.07;;;0.20;33.20;;;;;;5051980;28;20197;-72
2021/01/27 01:22:10;;;;;;;3.63;2.93;;;0.10;33.00;;;;;;5070917;28;20214;-72
2021/01/27 01:24:36;;;;;;;5.67;3.10;;;0.10;33.70;;;;;;5070862;28;20203;-72
2021/01/27 01:27:01;;;;;;;6.27;2.90;;;0.10;33.10;;;;;;5071509;28;20185;-72
2021/01/27 01:29:27;;;;;;;3.47;3.17;;;0.20;33.20;;;;;;5070014;28;20194;-72
2021/01/27 01:31:52;;;;;;;9.27;3.47;;;0.30;33.00;;;;;;5070707;28;20211;-72
2021/01/27 01:34:18;;;;;;;3.40;2.93;;;0.30;32.70;;;;;;5052702;28;20175;-71
2021/01/27 01:36:43;;;;;;;4.20;2.80;;;0.30;32.50;;;;;;5052560;28;20191;-72
2021/01/27 01:39:09;;;;;;;11.13;2.97;;;0.30;32.30;;;;;;5069408;28;20212;-72
2021/01/27 01:41:34;;;;;;;3.57;2.60;;;0.30;32.30;;;;;;5070487;28;20202;-72
2021/01/27 01:44:00;;;;;;;4.83;2.90;;;0.30;32.30;;;;;;5066016;28;20278;-72
2021/01/27 01:46:25;;;;;;;7.20;3.17;;;0.20;32.80;;;;;;5070469;28;20174;-72
2021/01/27 01:48:55;;;;;;;4.03;3.50;;;0.20;32.90;;;;;;5069230;28;20703;-72
2021/01/27 01:51:48;;;;;;;5.13;3.13;;;0.30;32.60;;;;;;5052628;28;20659;-72
2021/01/27 01:54:21;;;;;;;5.40;3.50;;;0.30;32.60;;;;;;5052476;28;20186;-72
2021/01/27 01:56:54;;;;;;;4.68;3.00;;;0.30;32.80;;;;;;5070416;28;20221;-72
2021/01/27 01:59:20;;;;;;;3.72;2.90;;;0.30;32.70;;;;;;5050883;28;20233;-72
2021/01/27 02:01:52;;;;;;;4.00;3.33;;;0.30;33.00;;;;;;5070115;28;20211;-72
2021/01/27 02:04:18;;;;;;;4.07;2.53;;;0.30;32.60;;;;;;5070264;28;20600;-72
2021/01/27 02:06:44;;;;;;;5.30;3.30;;;0.30;32.50;;;;;;5070332;28;20175;-72
2021/01/27 02:09:09;;;;;;;4.97;3.20;;;0.40;31.70;;;;;;5069672;28;20248;-72
2021/01/27 02:12:17;;;;;;;4.20;2.30;;;0.40;31.60;;;;;;5051962;28;20308;-72
2021/01/27 02:15:07;;;;;;;4.35;2.83;;;0.40;31.60;;;;;;5064515;28;20194;-72
2021/01/27 02:17:50;;;;;;;4.40;3.00;;;0.40;31.40;;;;;;5051550;28;20189;-72
2021/01/27 02:20:34;;;;;;;2.92;2.63;;;0.30;32.00;;;;;;5055444;28;20231;-72
2021/01/27 02:23:48;;;;;;;3.17;2.88;;;0.20;32.00;;;;;;5055708;28;20290;-72
2021/01/27 02:26:38;;;;;;;3.28;2.50;;;0.20;31.80;;;;;;4992067;28;20200;-72
2021/01/27 02:29:11;;;;;;;2.55;2.35;;;0.10;31.80;;;;;;4991956;28;20206;-72
2021/01/27 02:31:42;;;;;;;2.78;2.50;;;0.10;31.30;;;;;;5047214;28;20230;-72
2021/01/27 02:34:45;;;;;;;7.38;3.25;;;0.10;31.50;;;;;;5055804;28;20258;-72
2021/01/27 02:37:15;;;;;;;3.10;2.60;;;0.00;31.60;;;;;;5073632;28;20260;-72
2021/01/27 02:39:56;;;;;;;4.28;3.08;;;-0.10;31.70;;;;;;5035056;28;20198;-72
2021/01/27 02:42:36;;;;;;;5.88;2.67;;;-0.10;31.80;;;;;;5053125;28;20219;-72
2021/01/27 02:45:15;;;;;;;3.35;2.63;;;-0.20;31.90;;;;;;5053475;28;20201;-72
2021/01/27 02:47:51;;;;;;;3.75;2.35;;;-0.30;32.00;;;;;;5040592;28;20182;-72
2021/01/27 02:50:24;;;;;;;3.13;2.83;;;-0.30;32.00;;;;;;5072915;28;20236;-72
2021/01/27 02:53:06;;;;;;;6.78;2.92;;;-0.30;32.00;;;;;;5055163;28;20259;-72
2021/01/27 02:55:50;;;;;;;4.53;2.70;;;-0.40;32.00;;;;;;5055526;28;20676;-72
2021/01/27 02:58:33;;;;;;;3.13;2.50;;;-0.40;32.40;;;;;;5055469;28;20210;-72
2021/01/27 03:01:10;;;;;;;3.70;2.92;;;-0.40;32.70;;;;;;5073224;28;20182;-72
2021/01/27 03:03:47;;;;;;;8.45;3.00;;;-0.50;32.50;;;;;;5054958;28;20198;-72
2021/01/27 03:06:16;;;;;;;3.05;2.50;;;-0.60;33.20;;;;;;5073438;28;20735;-72
2021/01/27 03:08:51;;;;;;;5.15;2.70;;;-0.60;33.50;;;;;;5073030;28;20185;-72
2021/01/27 03:11:23;;;;;;;4.18;3.22;;;-0.60;33.50;;;;;;5073239;28;20174;-72
2021/01/27 03:13:49;;;;;;;3.65;2.90;;;-0.60;33.50;;;;;;5072756;28;20180;-72
2021/01/27 03:16:32;;;;;;;3.40;2.97;;;-0.50;33.30;;;;;;5073522;28;20252;-72
2021/01/27 03:19:13;;;;;;;4.18;2.55;;;-0.50;33.00;;;;;;5066894;28;20246;-72
2021/01/27 03:21:58;;;;;;;3.00;2.50;;;-0.40;32.90;;;;;;5072991;28;20344;-72
2021/01/27 03:24:24;;;;;;;5.55;3.40;;;-0.40;32.50;;;;;;5073045;28;20176;-72
2021/01/27 03:27:05;;;;;;;2.80;2.23;;;-0.40;32.40;;;;;;5072670;28;20173;-72
2021/01/27 03:29:52;;;;;;;3.20;2.42;;;-0.30;32.30;;;;;;5053592;28;20813;-72
2021/01/27 03:32:38;;;;;;;3.30;2.70;;;-0.30;32.10;;;;;;5072933;28;20175;-72
2021/01/27 03:35:07;;;;;;;4.85;3.90;;;-0.20;31.90;;;;;;5054294;28;20192;-72
2021/01/27 03:37:57;;;;;;;2.95;2.75;;;-0.20;31.90;;;;;;5072509;28;20544;-72
2021/01/27 03:40:24;;;;;;;3.40;3.10;;;-0.20;32.10;;;;;;5053949;28;20537;-72
2021/01/27 03:43:15;;;;;;;3.65;3.10;;;-0.20;32.10;;;;;;5054589;28;20208;-72
2021/01/27 03:45:54;;;;;;;4.68;3.67;;;-0.20;32.40;;;;;;5048115;28;20276;-72
2021/01/27 03:48:32;;;;;;;3.90;3.38;;;-0.20;32.30;;;;;;5075443;22;20265;-74
2021/01/27 03:51:01;;;;;;;3.67;3.30;;;-0.20;32.60;;;;;;5109193;28;20245;-74
2021/01/27 03:53:30;;;;;;;3.67;2.65;;;-0.20;32.70;;;;;;5115114;28;20242;-75
2021/01/27 03:56:13;;;;;;;6.45;3.83;;;-0.20;32.80;;;;;;5114646;28;20165;-71
2021/01/27 03:58:42;;;;;;;3.92;3.53;;;-0.10;32.40;;;;;;5114422;28;20260;-72
2021/01/27 04:01:12;;;;;;;6.63;3.78;;;-0.10;32.30;;;;;;5114140;28;20572;-72
2021/01/27 04:03:38;;;;;;;4.28;3.30;;;-0.10;32.50;;;;;;5074041;28;20552;-72
2021/01/27 04:06:06;;;;;;;3.95;3.08;;;-0.10;32.50;;;;;;5055931;28;20186;-72
2021/01/27 04:08:32;;;;;;;3.55;3.05;;;-0.10;32.60;;;;;;5055886;28;20215;-72
2021/01/27 04:10:59;;;;;;;3.55;3.25;;;-0.20;32.40;;;;;;5073408;28;20185;-73
2021/01/27 04:13:25;;;;;;;4.45;3.75;;;-0.20;32.60;;;;;;5073575;28;20203;-72
2021/01/27 04:15:50;;;;;;;4.87;3.10;;;-0.20;32.90;;;;;;5073871;28;20591;-71
2021/01/27 04:18:16;;;;;;;4.13;3.60;;;-0.20;32.80;;;;;;5072980;28;20198;-72
2021/01/27 04:20:41;;;;;;;4.70;3.43;;;-0.20;32.70;;;;;;5071024;28;20257;-72
2021/01/27 04:23:07;;;;;;;4.33;3.93;;;-0.20;32.70;;;;;;5088583;28;20235;-72
2021/01/27 04:25:33;;;;;;;4.43;4.03;;;-0.10;32.30;;;;;;5094011;28;20204;-73
2021/01/27 04:27:58;;;;;;;4.63;3.20;;;-0.10;32.00;;;;;;5093049;28;20175;-72
2021/01/27 04:30:29;;;;;;;12.33;4.20;;;0.00;31.80;;;;;;5092597;28;20664;-72
2021/01/27 04:32:55;;;;;;;4.00;3.15;;;0.00;31.40;;;;;;5093188;28;20175;-72
2021/01/27 04:35:21;;;;;;;4.55;3.75;;;0.10;31.20;;;;;;5093120;28;20176;-72
2021/01/27 04:37:46;;;;;;;4.20;3.80;;;0.10;31.30;;;;;;5088579;28;20244;-73
2021/01/27 04:40:17;;;;;;;4.97;4.07;;;0.20;31.40;;;;;;5072113;28;20180;-73
2021/01/27 04:42:43;;;;;;;4.03;3.63;;;0.20;31.70;;;;;;5053778;28;20302;-72
2021/01/27 04:45:09;;;;;;;4.10;3.70;;;0.30;31.20;;;;;;5072902;28;20236;-72
2021/01/27 04:47:56;;;;;;;6.63;3.85;;;0.30;30.90;;;;;;5072714;28;20236;-72
2021/01/27 04:50:32;;;;;;;4.45;3.50;;;0.30;31.30;;;;;;5071840;28;20178;-72
2021/01/27 04:53:21;;;;;;;7.43;3.45;;;0.30;31.40;;;;;;5072001;28;20192;-72
2021/01/27 04:55:52;;;;;;;6.95;3.95;;;0.20;31.60;;;;;;5093431;28;20178;-72
2021/01/27 04:58:20;;;;;;;4.30;3.40;;;0.10;32.10;;;;;;5093051;28;20196;-71
2021/01/27 05:01:04;;;;;;;6.18;4.25;;;0.10;32.50;;;;;;5092656;28;20181;-73
2021/01/27 05:03:39;;;;;;;7.63;4.20;;;0.10;32.50;;;;;;5092696;28;20194;-72
2021/01/27 05:06:08;;;;;;;8.02;3.78;;;0.10;32.90;;;;;;5092784;28;20666;-72
2021/01/27 05:08:42;;;;;;;4.32;3.92;;;0.10;32.70;;;;;;5074571;28;20574;-72
2021/01/27 05:11:12;;;;;;;6.10;3.63;;;0.10;32.40;;;;;;5091950;28;20655;-72
2021/01/27 05:13:45;;;;;;;3.15;2.85;;;0.20;32.10;;;;;;5092437;28;20184;-72
2021/01/27 05:16:14;;;;;;;5.35;3.83;;;0.20;32.00;;;;;;5093112;28;20176;-73
2021/01/27 05:18:41;;;;;;;3.97;3.67;;;0.20;31.90;;;;;;5092700;28;20187;-73
2021/01/27 05:21:17;;;;;;;5.20;4.45;;;0.20;32.20;;;;;;5091776;28;20176;-73
2021/01/27 05:23:43;;;;;;;5.88;4.40;;;0.10;32.40;;;;;;5091375;28;20242;-73
2021/01/27 05:26:11;;;;;;;9.03;3.90;;;0.10;32.60;;;;;;5070944;28;20184;-72
2021/01/27 05:28:44;;;;;;;5.05;3.90;;;0.20;32.70;;;;;;5092751;28;20198;-73
2021/01/27 05:31:09;;;;;;;3.55;3.20;;;0.20;33.10;;;;;;5092368;28;20229;-73
2021/01/27 05:33:45;;;;;;;4.10;3.70;;;0.30;31.50;;;;;;5091914;28;20650;-72
2021/01/27 05:36:21;;;;;;;7.78;4.38;;;0.40;30.90;;;;;;5092588;28;20166;-73
2021/01/27 05:38:47;;;;;;;5.05;3.50;;;0.40;30.80;;;;;;5079757;28;20286;-74
2021/01/27 05:41:26;;;;;;;5.25;3.60;;;0.40;30.80;;;;;;5072942;28;20183;-73
2021/01/27 05:44:08;;;;;;;4.95;3.53;;;0.50;30.90;;;;;;5074405;28;20177;-74
2021/01/27 05:46:35;;;;;;;7.38;3.80;;;0.60;30.60;;;;;;5080985;28;20181;-72
2021/01/27 05:49:03;;;;;;;3.22;2.92;;;0.60;30.40;;;;;;5061405;28;20232;-75
2021/01/27 05:51:30;;;;;;;3.67;3.08;;;0.60;30.20;;;;;;5067874;28;20197;-73
2021/01/27 05:53:55;;;;;;;3.70;3.40;;;0.60;30.20;;;;;;5076131;28;20192;-73
2021/01/27 05:56:26;;;;;;;4.80;3.60;;;0.70;30.20;;;;;;5077043;28;20184;-73
2021/01/27 05:59:00;;;;;;;5.88;4.03;;;0.70;30.00;;;;;;5076690;28;20707;-73
2021/01/27 06:01:26;;;;;;;4.90;3.85;;;0.80;30.00;;;;;;5077298;28;20515;-75
2021/01/27 06:04:01;;;;;;;3.53;3.23;;;0.80;30.00;;;;;;5077725;28;20184;-73
2021/01/27 06:06:31;;;;;;;8.07;4.70;;;0.90;29.90;;;;;;5063687;28;20198;-74
2021/01/27 06:08:59;;;;;;;5.32;4.10;;;0.90;30.00;;;;;;5080589;28;20558;-74
2021/01/27 06:11:26;;;;;;;6.32;3.50;;;0.90;29.80;;;;;;5063715;28;20177;-73
2021/01/27 06:14:10;;;;;;;5.18;3.50;;;1.00;29.60;;;;;;5062889;28;20276;-74
2021/01/27 06:16:43;;;;;;;4.40;4.05;;;1.00;29.40;;;;;;5062652;28;20176;-74
2021/01/27 06:19:23;;;;;;;6.35;3.80;;;1.00;29.10;;;;;;5082282;28;20185;-74
2021/01/27 06:22:14;;;;;;;4.88;4.25;;;1.00;29.10;;;;;;5065023;28;20208;-74
2021/01/27 06:25:04;;;;;;;5.88;4.82;;;1.10;29.50;;;;;;5081150;28;20176;-73
2021/01/27 06:27:48;;;;;;;4.75;4.35;;;1.10;29.50;;;;;;5062402;28;20202;-72
2021/01/27 06:30:21;;;;;;;7.03;6.22;;;1.00;29.70;;;;;;5082108;28;20191;-73
2021/01/27 06:33:05;;;;;;;6.32;4.50;;;0.90;29.80;;;;;;5064217;28;20301;-73
2021/01/27 06:36:03;;;;;;;6.05;4.68;;;0.90;29.80;;;;;;5060582;28;20189;-72
2021/01/27 06:39:04;;;;;;;5.05;4.55;;;0.80;29.90;;;;;;5026107;28;20216;-72
2021/01/27 06:41:45;;;;;;;5.22;4.82;;;0.60;31.00;;;;;;5067154;28;20303;-72
2021/01/27 06:44:21;;;;;;;6.00;4.78;;;0.50;31.40;;;;;;5095464;28;20184;-73
2021/01/27 06:47:08;;;;;;;5.25;4.75;;;0.40;31.60;;;;;;5079273;28;20205;-72
2021/01/27 06:49:50;;;;;;;4.65;4.25;;;0.40;32.00;;;;;;5080543;28;20209;-72
2021/01/27 06:52:34;;;;;;;7.07;5.07;;;0.30;31.90;;;;;;5098665;28;20180;-72
2021/01/27 06:55:08;;;;;;;5.20;4.18;;;0.30;32.10;;;;;;5093689;28;20184;-71
2021/01/27 06:58:02;;;;;;;8.90;4.57;;;0.30;31.90;;;;;;5079134;28;20181;-71
2021/01/27 07:00:30;;;;;;;4.90;4.40;;;0.20;31.60;;;;;;5061051;28;20227;-72
2021/01/27 07:03:32;;;;;;;4.80;3.63;;;0.20;32.00;;;;;;5080135;28;20332;-72
2021/01/27 07:06:28;;;;;;;5.63;4.32;;;0.20;31.40;;;;;;5062177;28;20563;-73
2021/01/27 07:08:53;;;;;;;6.63;5.10;;;0.20;31.30;;;;;;5090580;28;20208;-72
2021/01/27 07:11:52;;;;;;;7.30;3.70;;;0.30;31.20;;;;;;5099371;28;20255;-72
2021/01/27 07:14:38;;;;;;;4.45;3.90;;;0.30;31.40;;;;;;5079546;28;20176;-71
2021/01/27 07:17:38;;;;;;;7.45;4.32;;;0.30;31.40;;;;;;5097644;28;20201;-72
2021/01/27 07:20:25;;;;;;;7.22;4.53;;;0.30;31.80;;;;;;5077705;28;20200;-73
2021/01/27 07:22:55;;;;;;;4.45;3.50;;;0.30;32.20;;;;;;5098152;28;20207;-72
2021/01/27 07:25:46;;;;;;;4.90;4.40;;;0.30;31.90;;;;;;5097746;28;20179;-72
2021/01/27 07:28:19;;;;;;;4.13;3.83;;;0.30;31.70;;;;;;5074980;28;20284;-73
2021/01/27 07:31:03;;;;;;;4.82;4.43;;;0.30;32.80;;;;;;5092973;28;20194;-71
2021/01/27 07:33:42;;;;;;;6.25;4.40;;;0.40;32.30;;;;;;5094594;28;20186;-72
2021/01/27 07:36:34;;;;;;;9.60;4.22;;;0.40;32.10;;;;;;5094053;28;20181;-71
2021/01/27 07:39:05;;;;;;;6.97;4.05;;;0.60;31.90;;;;;;5084298;28;20217;-73
2021/01/27 07:41:44;;;;;;;5.15;4.00;;;0.70;31.60;;;;;;5087425;28;20232;-73
2021/01/27 07:44:14;;;;;;;4.80;3.90;;;0.80;30.80;;;;;;5073472;28;20613;-72
2021/01/27 07:46:47;;;;;;;5.72;4.00;;;0.90;30.80;;;;;;5087899;28;20608;-73
2021/01/27 07:49:19;;;;;;;2.70;2.50;;;1.00;31.10;;;;;;5059086;28;20709;-72
2021/01/27 07:51:55;;;;;;;3.72;1.85;;;1.10;32.10;;;;;;5060143;28;20186;-72
2021/01/27 07:54:47;;;;;;;2.78;2.45;;;1.20;32.90;;;;;;5108940;28;20231;-71
2021/01/27 07:57:36;;;;;;;3.65;2.83;;;1.20;33.50;;;;;;5113896;28;20228;-72
2021/01/27 08:00:05;;;;;;;2.30;1.92;;;1.10;33.90;;;;;;5108788;28;20254;-73
2021/01/27 08:02:36;;;;;;;2.47;1.85;;;1.20;34.30;;;;;;5089456;28;20578;-72
2021/01/27 08:05:08;;;;;;;3.92;2.55;;;1.30;34.50;;;;;;5086262;28;20261;-72
2021/01/27 08:07:39;;;;;;;5.00;2.90;;;1.30;34.90;;;;;;5098844;28;20172;-71
2021/01/27 08:10:11;;;;;;;2.55;1.88;;;1.40;34.60;;;;;;5080620;28;20283;-73
2021/01/27 08:12:59;;;;;;;1.90;1.70;;;1.40;34.40;;;;;;5098580;28;20177;-72
2021/01/27 08:15:24;;;;;;;1.63;1.48;;;1.60;34.20;;;;;;5092974;28;20197;-72
2021/01/27 08:17:55;;;;;;;1.97;1.70;;;1.70;33.60;;;;;;5091044;28;20238;-72
2021/01/27 08:20:37;;;;;;;4.15;2.13;;;1.70;32.50;;;;;;5093325;28;20259;-72
2021/01/27 08:23:20;;;;;;;5.47;2.85;;;1.80;31.60;;;;;;5072944;28;20210;-72
2021/01/27 08:26:07;;;;;;;3.08;2.05;;;1.80;31.30;;;;;;5085027;28;20276;-74
2021/01/27 08:28:41;;;;;;;3.08;2.30;;;1.80;31.40;;;;;;5081454;28;20200;-72
2021/01/27 08:31:09;;;;;;;2.47;1.92;;;1.90;30.90;;;;;;5098227;28;20536;-73
2021/01/27 08:33:47;;;;;;;3.30;2.05;;;1.90;30.40;;;;;;5097064;28;20182;-73
2021/01/27 08:36:12;;;;;;;11.32;3.20;;;1.90;30.20;;;;;;5073573;28;20184;-72
2021/01/27 08:39:06;;;;;;;3.40;3.10;;;1.90;29.90;;;;;;5087311;28;20513;-71
2021/01/27 08:41:56;;;;;;;3.78;2.53;;;1.90;30.40;;;;;;5077388;28;20268;-72
2021/01/27 08:44:21;;;;;;;3.70;3.30;;;1.80;30.90;;;;;;5095343;28;20174;-72
2021/01/27 08:46:56;;;;;;;3.70;3.33;;;1.80;30.90;;;;;;5093187;28;20255;-72
2021/01/27 08:49:37;;;;;;;7.25;5.40;;;1.80;30.30;;;;;;5089407;28;20263;-71
2021/01/27 08:52:08;;;;;;;5.47;3.30;;;1.80;31.00;;;;;;5075122;28;20508;-72
2021/01/27 08:54:37;;;;;;;3.80;2.25;;;1.70;31.20;;;;;;5078994;28;20181;-71
2021/01/27 08:57:26;;;;;;;6.63;3.50;;;1.80;30.70;;;;;;5086240;28;20190;-72
2021/01/27 08:59:52;;;;;;;3.55;2.65;;;1.70;31.30;;;;;;5058412;28;20208;-72
2021/01/27 09:02:59;;;;;;;3.00;2.70;;;1.70;31.70;;;;;;5063299;28;20197;-72
2021/01/27 09:05:25;;;;;;;3.17;2.88;;;1.80;31.40;;;;;;5068117;28;20534;-72
2021/01/27 09:08:00;;;;;;;4.53;3.20;;;1.80;31.70;;;;;;5078873;28;20306;-72
2021/01/27 09:10:35;;;;;;;5.97;2.60;;;1.90;31.60;;;;;;5062778;28;20516;-72
2021/01/27 09:13:33;;;;;;;3.08;2.00;;;1.90;31.90;;;;;;5081652;28;20228;-71
2021/01/27 09:16:06;;;;;;;2.70;2.13;;;1.80;32.10;;;;;;5059299;28;20184;-72
2021/01/27 09:18:33;;;;;;;2.65;2.08;;;1.80;33.20;;;;;;5074693;28;20252;-71
2021/01/27 09:21:09;;;;;;;3.58;2.47;;;1.80;33.30;;;;;;5078760;28;20184;-72
2021/01/27 09:23:35;;;;;;;2.60;2.35;;;1.90;33.90;;;;;;5083744;28;20272;-72
2021/01/27 09:26:11;;;;;;;2.15;1.95;;;1.90;33.60;;;;;;5076278;28;20181;-71
2021/01/27 09:28:37;;;;;;;2.20;1.77;;;1.80;34.00;;;;;;5069736;28;20186;-72
2021/01/27 09:31:21;;;;;;;5.10;2.00;;;1.70;34.90;;;;;;5059017;28;20544;-72
2021/01/27 09:33:47;;;;;;;4.47;3.60;;;1.70;35.40;;;;;;5090588;28;20176;-72
2021/01/27 09:36:22;;;;;;;4.40;2.83;;;1.80;35.40;;;;;;5072222;28;20599;-72
2021/01/27 09:38:52;;;;;;;5.30;2.38;;;1.80;35.50;;;;;;5079955;28;20275;-73
2021/01/27 09:41:23;;;;;;;3.67;3.13;;;1.90;35.50;;;;;;5081550;28;20184;-72
2021/01/27 09:43:49;;;;;;;4.50;4.10;;;1.90;35.00;;;;;;5078061;28;20178;-72
2021/01/27 09:46:19;;;;;;;3.10;2.27;;;1.90;35.50;;;;;;5069204;28;20541;-72
2021/01/27 09:48:46;;;;;;;2.85;2.65;;;1.90;35.50;;;;;;5084800;22;20505;-72
2021/01/27 09:51:14;;;;;;;3.20;2.40;;;1.90;35.50;;;;;;5106998;28;20184;-71
2021/01/27 09:53:40;;;;;;;5.78;1.92;;;1.80;35.40;;;;;;5092331;28;20204;-71
2021/01/27 09:56:09;;;;;;;6.22;2.60;;;1.80;35.40;;;;;;5111018;28;20187;-73
2021/01/27 09:58:39;;;;;;;3.10;2.80;;;1.80;35.60;;;;;;5092176;28;20191;-72
2021/01/27 10:01:08;;;;;;;3.10;2.60;;;1.80;35.50;;;;;;5093425;28;20195;-72
2021/01/27 10:03:42;;;;;;;6.88;3.03;;;1.80;36.20;;;;;;5117646;28;20236;-72
2021/01/27 10:06:30;;;;;;;3.92;2.88;;;1.70;36.50;;;;;;5125291;28;20179;-73
2021/01/27 10:08:58;;;;;;;5.80;3.17;;;1.70;37.40;;;;;;5069629;28;20196;-71
2021/01/27 10:11:32;;;;;;;3.58;2.67;;;1.80;37.70;;;;;;5070381;28;20220;-72
2021/01/27 10:14:04;;;;;;;4.45;2.83;;;1.80;38.00;;;;;;5070721;28;20172;-73
2021/01/27 10:16:31;;;;;;;2.13;1.88;;;1.70;37.80;;;;;;5072879;28;20177;-71
2021/01/27 10:19:21;;;;;;;3.05;2.35;;;1.70;38.10;;;;;;5111868;28;20275;-73
2021/01/27 10:21:47;;;;;;;2.70;1.80;;;1.70;38.30;;;;;;5095694;28;20576;-72
2021/01/27 10:24:45;;;;;;;6.35;2.83;;;1.60;38.30;;;;;;5090423;28;20170;-71
2021/01/27 10:27:19;;;;;;;2.42;1.58;;;1.60;38.50;;;;;;5077830;28;20578;-72
2021/01/27 10:29:45;;;;;;;2.65;2.15;;;1.70;38.10;;;;;;5092557;28;20627;-71
2021/01/27 10:32:40;;;;;;;4.82;3.33;;;1.70;38.60;;;;;;5111237;28;20172;-71
2021/01/27 10:35:25;;;;;;;4.28;2.38;;;1.80;37.90;;;;;;5083809;28;20239;-72
2021/01/27 10:38:14;;;;;;;7.68;2.67;;;1.90;37.40;;;;;;5075750;28;20216;-72
2021/01/27 10:41:00;;;;;;;2.88;2.05;;;2.00;37.50;;;;;;5075442;28;20189;-72
2021/01/27 10:43:28;;;;;;;3.97;2.75;;;2.10;35.70;;;;;;5109602;28;20680;-72
2021/01/27 10:45:54;;;;;;;2.70;2.45;;;2.30;35.90;;;;;;5119228;28;20188;-73
2021/01/27 10:48:21;;;;;;;5.30;2.85;;;2.40;35.00;;;;;;5086964;28;20694;-72
2021/01/27 10:50:51;;;;;;;3.40;3.08;;;2.40;34.20;;;;;;5088640;28;20185;-72
2021/01/27 10:53:19;;;;;;;5.57;3.53;;;2.40;34.10;;;;;;5077503;28;20177;-72
2021/01/27 10:55:53;;;;;;;2.97;2.50;;;2.50;33.80;;;;;;5100817;28;20408;-72
2021/01/27 10:58:19;;;;;;;3.33;2.58;;;2.60;33.10;;;;;;5101350;28;20215;-73
2021/01/27 11:00:45;;;;;;;19.00;2.90;;;2.80;33.30;;;;;;5096560;28;20221;-73
2021/01/27 11:03:12;;;;;;;3.60;2.92;;;;;;;;;;5070082;28;20551;-72
2021/01/27 11:05:38;;;;;;;4.18;2.85;;;3.20;30.70;;;;;;5074531;28;20184;-72
2021/01/27 11:08:05;;;;;;;3.73;2.37;;;3.20;30.00;;;;;;5082945;28;20186;-72
2021/01/27 11:10:32;;;;;;;2.22;1.83;;;3.10;29.60;;;;;;5073286;28;20197;-72
2021/01/27 11:12:58;;;;;;;3.42;2.38;;;3.10;30.00;;;;;;5087272;28;20564;-72
2021/01/27 11:15:24;;;;;;;4.80;3.10;;;3.10;30.30;;;;;;5114722;28;20173;-72
2021/01/27 11:17:50;;;;;;;2.85;2.55;;;3.10;30.80;;;;;;5111647;28;20627;-72
2021/01/27 11:20:19;;;;;;;4.13;2.67;;;3.00;30.30;;;;;;5092205;28;20267;-72
2021/01/27 11:22:46;;;;;;;3.45;2.85;;;2.90;31.20;;;;;;5109764;28;20546;-72
2021/01/27 11:25:15;;;;;;;2.22;2.00;;;2.80;32.50;;;;;;5113666;28;20183;-72
2021/01/27 11:27:41;;;;;;;3.83;2.70;;;2.80;32.00;;;;;;5098904;28;20196;-71
2021/01/27 11:30:07;;;;;;;5.33;3.37;;;2.80;32.30;;;;;;5112743;28;20184;-72
2021/01/27 11:32:34;;;;;;;3.75;2.85;;;2.80;33.10;;;;;;5111177;28;20176;-71
2021/01/27 11:34:59;;;;;;;3.60;2.90;;;2.80;33.20;;;;;;5076233;28;20181;-71
2021/01/27 11:37:25;;;;;;;3.00;2.20;;;3.00;33.60;;;;;;5112541;28;20176;-71
2021/01/27 11:39:50;;;;;;;4.83;2.10;;;3.20;32.40;;;;;;5093578;28;20251;-72
2021/01/27 11:42:16;;;;;;;2.47;2.27;;;3.30;31.60;;;;;;5077327;28;20295;-72
2021/01/27 11:44:41;;;;;;;4.53;2.60;;;3.30;29.90;;;;;;5111911;28;20174;-71
2021/01/27 11:47:07;;;;;;;3.43;2.53;;;3.30;29.70;;;;;;5093031;28;20685;-71
2021/01/27 11:49:33;;;;;;;3.20;2.70;;;3.20;29.70;;;;;;5091998;28;20282;-71
2021/01/27 11:51:58;;;;;;;7.73;2.90;;;3.30;30.00;;;;;;5073807;28;20646;-72
2021/01/27 11:54:24;;;;;;;2.70;2.50;;;3.40;29.50;;;;;;5109915;28;20193;-71
2021/01/27 11:56:50;;;;;;;3.27;2.60;;;3.40;29.20;;;;;;5084288;28;20616;-72
2021/01/27 11:59:15;;;;;;;5.43;3.17;;;3.50;29.60;;;;;;5053828;28;20198;-72
2021/01/27 12:01:41;;;;;;;3.10;2.60;;;3.70;29.10;;;;;;5097491;28;20475;-71
2021/01/27 12:04:07;;;;;;;3.30;3.00;;;3.90;28.10;;;;;;5107421;28;20603;-71
2021/01/27 12:06:32;;;;;;;3.70;3.37;;;4.00;28.00;;;;;;5081982;28;20189;-71
2021/01/27 12:08:58;;;;;;;3.60;3.23;;;4.10;27.80;;;;;;5075349;28;20209;-71
2021/01/27 12:11:23;;;;;;;4.27;3.10;;;4.00;27.70;;;;;;5095046;28;20230;-72
2021/01/27 12:13:49;;;;;;;5.00;3.87;;;3.90;27.70;;;;;;5099213;28;20185;-72
2021/01/27 12:16:15;;;;;;;4.50;2.90;;;3.70;28.30;;;;;;5095500;28;20186;-72
2021/01/27 12:18:42;;;;;;;4.35;3.80;;;3.40;29.50;;;;;;5095345;28;20238;-74
2021/01/27 12:21:08;;;;;;;3.17;2.85;;;3.20;30.00;;;;;;5095116;28;20176;-72
2021/01/27 12:23:34;;;;;;;3.25;2.95;;;3.10;30.90;;;;;;5095129;28;20209;-72
2021/01/27 12:26:00;;;;;;;6.67;2.90;;;3.00;31.10;;;;;;5095508;28;20318;-72
2021/01/27 12:28:25;;;;;;;12.50;2.90;;;2.80;31.20;;;;;;5094462;28;20173;-70
2021/01/27 12:30:51;;;;;;;3.50;3.20;;;2.80;31.70;;;;;;5093917;28;20238;-71
2021/01/27 12:33:16;;;;;;;4.47;3.20;;;2.80;32.10;;;;;;5095253;28;20174;-71
2021/01/27 12:35:42;;;;;;;6.90;3.33;;;2.70;32.00;;;;;;5094430;28;20256;-71
2021/01/27 12:38:07;;;;;;;5.10;3.40;;;2.70;32.60;;;;;;5087177;28;20177;-71
2021/01/27 12:40:33;;;;;;;6.97;3.67;;;2.70;33.10;;;;;;5072489;28;20212;-71
2021/01/27 12:42:59;;;;;;;3.17;2.87;;;2.70;33.30;;;;;;5074173;28;20227;-71
2021/01/27 12:45:27;;;;;;;3.00;2.70;;;2.60;33.20;;;;;;5074773;28;20229;-71
2021/01/27 12:47:53;;;;;;;3.65;3.28;;;2.60;32.90;;;;;;5081121;28;20215;-71
2021/01/27 12:50:20;;;;;;;4.32;3.40;;;2.60;32.70;;;;;;5075332;28;20573;-71
2021/01/27 12:52:46;;;;;;;5.32;3.58;;;2.60;32.90;;;;;;5075588;28;20183;-71
2021/01/27 12:55:14;;;;;;;5.93;3.47;;;2.70;32.50;;;;;;5074279;28;20174;-71
2021/01/27 12:57:41;;;;;;;4.25;3.55;;;2.70;32.60;;;;;;5075144;28;20194;-71
2021/01/27 13:00:10;;;;;;;3.28;2.97;;;2.70;32.60;;;;;;5095143;28;20193;-71
2021/01/27 13:02:35;;;;;;;3.60;2.95;;;2.90;32.00;;;;;;5075760;28;20294;-72
2021/01/27 13:05:02;;;;;;;3.90;3.60;;;2.80;31.10;;;;;;5074034;28;20664;-72
2021/01/27 13:07:27;;;;;;;7.35;4.45;;;2.90;31.20;;;;;;5071003;28;20181;-72
2021/01/27 13:09:53;;;;;;;6.23;4.60;;;3.00;31.20;;;;;;5069831;28;20194;-72
2021/01/27 13:12:18;;;;;;;5.47;4.10;;;3.00;31.30;;;;;;5091774;28;20187;-72
2021/01/27 13:14:44;;;;;;;6.77;4.53;;;3.10;30.00;;;;;;5111447;28;20180;-72
2021/01/27 13:17:09;;;;;;;5.13;4.10;;;3.00;30.30;;;;;;5111386;28;20172;-72
2021/01/27 13:19:35;;;;;;;5.80;3.80;;;2.90;30.60;;;;;;5091937;28;20281;-72
2021/01/27 13:22:00;;;;;;;4.60;3.57;;;2.80;31.10;;;;;;5102180;28;20219;-72
2021/01/27 13:24:26;;;;;;;7.00;3.67;;;2.70;31.10;;;;;;5103481;28;20186;-72